createdAt,value
2023-04-12T00:03:10.479Z,3.68
2023-04-12T00:08:40.331Z,3.68
2023-04-12T00:14:05.337Z,3.70
2023-04-12T00:19:39.320Z,3.76
2023-04-12T00:25:04.321Z,3.76
2023-04-12T00:30:30.497Z,3.69
2023-04-12T00:35:58.393Z,3.64
2023-04-12T00:41:23.331Z,3.61
2023-04-12T00:46:49.386Z,3.63
2023-04-12T00:52:21.480Z,3.57
2023-04-12T00:57:47.343Z,3.53
2023-04-12T01:03:12.531Z,3.51
2023-04-12T01:08:52.345Z,3.47
2023-04-12T01:14:23.488Z,3.45
2023-04-12T01:20:06.292Z,3.38
2023-04-12T01:25:47.432Z,3.34
2023-04-12T01:31:16.387Z,3.26
2023-04-12T01:36:44.356Z,3.24
2023-04-12T01:42:08.355Z,3.23
2023-04-12T01:47:36.402Z,3.21
2023-04-12T01:53:19.370Z,3.23
2023-04-12T01:58:45.359Z,3.23
2023-04-12T02:04:13.475Z,3.20
2023-04-12T02:09:38.341Z,3.22
2023-04-12T02:15:04.518Z,3.23
2023-04-12T02:20:39.359Z,3.23
2023-04-12T02:26:04.538Z,3.26
2023-04-12T02:31:28.385Z,3.29
2023-04-12T02:36:59.375Z,3.31
2023-04-12T02:42:23.361Z,3.28
2023-04-12T02:47:48.408Z,3.20
2023-04-12T02:53:20.391Z,3.14
2023-04-12T02:59:03.443Z,3.12
2023-04-12T03:04:47.414Z,3.16
2023-04-12T03:10:21.407Z,3.15
2023-04-12T03:16:03.412Z,3.21
2023-04-12T03:21:35.417Z,3.18
2023-04-12T03:27:04.373Z,3.15
2023-04-12T03:32:30.441Z,3.16
2023-04-12T03:37:57.399Z,3.20
2023-04-12T03:43:24.392Z,3.20
2023-04-12T03:48:49.444Z,3.20
2023-04-12T03:54:16.397Z,3.21
2023-04-12T03:59:56.467Z,3.18
2023-04-12T04:05:35.495Z,3.19
2023-04-12T04:11:00.393Z,3.21
2023-04-12T04:16:32.443Z,3.22
2023-04-12T04:22:00.440Z,3.22
2023-04-12T04:27:27.467Z,3.27
2023-04-12T04:32:56.678Z,3.32
2023-04-12T04:38:22.664Z,3.38
2023-04-12T04:43:57.639Z,3.43
2023-04-12T04:49:26.459Z,3.49
2023-04-12T04:54:56.433Z,3.54
2023-04-12T05:00:28.437Z,3.61
2023-04-12T05:05:58.429Z,3.67
2023-04-12T05:11:24.445Z,3.73
2023-04-12T05:16:49.488Z,3.80
2023-04-12T05:22:16.446Z,3.86
2023-04-12T05:27:41.468Z,3.95
2023-04-12T05:33:08.620Z,4.03
2023-04-12T05:38:39.483Z,4.12
2023-04-12T05:44:04.460Z,4.24
2023-04-12T05:49:29.498Z,4.37
2023-04-12T05:54:59.444Z,4.50
2023-04-12T06:00:26.544Z,4.62
2023-04-12T06:05:51.518Z,4.73
2023-04-12T06:11:19.558Z,4.86
2023-04-12T06:16:45.464Z,5.02
2023-04-12T06:22:10.527Z,5.13
2023-04-12T06:27:37.500Z,5.24
2023-04-12T06:33:03.615Z,5.35
2023-04-12T06:38:27.472Z,5.50
2023-04-12T06:43:55.474Z,5.70
2023-04-12T06:49:19.739Z,6.04
2023-04-12T06:54:46.614Z,6.38
2023-04-12T07:00:13.458Z,6.77
2023-04-12T07:05:38.503Z,7.13
2023-04-12T07:16:42.648Z,7.72
2023-04-12T07:22:14.252Z,7.97
2023-04-12T07:27:39.486Z,8.16
2023-04-12T07:33:18.387Z,8.28
2023-04-12T07:38:44.508Z,8.44
2023-04-12T07:44:09.526Z,8.55
2023-04-12T07:49:37.563Z,8.67
2023-04-12T07:55:01.770Z,8.78
2023-04-12T08:00:27.735Z,8.87
2023-04-12T08:05:59.575Z,9.13
2023-04-12T08:11:24.531Z,9.28
2023-04-12T08:16:50.559Z,9.41
2023-04-12T08:22:25.554Z,9.60
2023-04-12T08:27:52.768Z,9.73
2023-04-12T08:33:16.625Z,9.81
2023-04-12T08:38:46.459Z,9.94
2023-04-12T08:44:11.588Z,9.98
2023-04-12T08:49:36.564Z,10.10
2023-04-12T08:55:03.553Z,10.32
2023-04-12T09:00:39.731Z,10.44
2023-04-12T09:06:16.205Z,10.44
2023-04-12T09:12:19.699Z,10.50
2023-04-12T09:17:50.321Z,10.60
2023-04-12T09:23:31.897Z,10.69
2023-04-12T09:29:16.980Z,10.76
2023-04-12T09:35:07.187Z,10.88
2023-04-12T09:40:42.774Z,10.98
2023-04-12T09:46:31.542Z,11.05
2023-04-12T09:52:30.750Z,11.26
2023-04-12T09:58:05.726Z,11.19
2023-04-12T10:03:44.765Z,11.32
2023-04-12T10:09:21.107Z,11.31
2023-04-12T10:14:48.950Z,11.35
2023-04-12T10:20:36.051Z,11.39
2023-04-12T10:26:17.869Z,11.43
2023-04-12T10:31:51.659Z,11.45
2023-04-12T10:37:27.751Z,11.29
2023-04-12T10:42:52.583Z,11.16
2023-04-12T10:48:17.656Z,10.92
2023-04-12T10:53:45.641Z,10.70
2023-04-12T10:59:17.637Z,10.48
2023-04-12T11:04:42.720Z,10.13
2023-04-12T11:10:29.627Z,9.87
2023-04-12T11:15:54.621Z,9.78
2023-04-12T11:21:25.660Z,9.62
2023-04-12T11:26:58.638Z,9.38
2023-04-12T11:32:26.786Z,9.30
2023-04-12T11:37:52.677Z,9.23
2023-04-12T11:43:20.869Z,9.11
2023-04-12T11:48:46.626Z,9.09
2023-04-12T11:54:11.656Z,9.04
2023-04-12T11:59:45.753Z,9.03
2023-04-12T12:05:10.868Z,8.98
2023-04-12T12:10:46.170Z,8.92
2023-04-12T12:16:27.805Z,8.97
2023-04-12T12:21:58.662Z,9.04
2023-04-12T12:27:27.690Z,9.10
2023-04-12T12:32:56.673Z,9.11
2023-04-12T12:38:28.924Z,9.09
2023-04-12T12:44:00.725Z,9.13
2023-04-12T12:49:28.662Z,9.20
2023-04-12T12:54:53.715Z,9.32
2023-04-12T13:00:21.711Z,9.33
2023-04-12T13:05:48.680Z,9.38
2023-04-12T13:11:14.386Z,9.41
2023-04-12T13:16:39.749Z,9.43
2023-04-12T13:22:14.676Z,9.42
2023-04-12T13:27:39.725Z,9.43
2023-04-12T13:33:04.710Z,9.46
2023-04-12T13:38:32.886Z,9.53
2023-04-12T13:43:56.982Z,9.69
2023-04-12T13:49:21.683Z,9.99
2023-04-12T13:54:49.736Z,10.28
2023-04-12T14:00:16.710Z,10.54
2023-04-12T14:05:42.722Z,10.48
2023-04-12T14:11:12.677Z,10.46
2023-04-12T14:16:36.824Z,10.44
2023-04-12T14:22:08.731Z,10.45
2023-04-12T14:27:36.839Z,10.45
2023-04-12T14:33:07.766Z,10.47
2023-04-12T14:38:32.772Z,10.53
2023-04-12T14:44:00.131Z,10.52
2023-04-12T14:49:24.760Z,10.59
2023-04-12T14:54:48.723Z,10.71
2023-04-12T15:00:19.751Z,10.77
2023-04-12T15:05:43.746Z,10.76
2023-04-12T15:11:08.767Z,10.87
2023-04-12T15:16:35.810Z,10.81
2023-04-12T15:22:01.752Z,10.81
2023-04-12T15:27:27.926Z,10.93
2023-04-12T15:32:55.777Z,11.39
2023-04-12T15:38:23.404Z,11.47
2023-04-12T15:43:51.915Z,11.49
2023-04-12T15:49:19.814Z,11.39
2023-04-12T15:54:49.053Z,11.36
2023-04-12T16:00:26.810Z,11.31
2023-04-12T16:05:55.034Z,11.26
2023-04-12T16:11:19.804Z,11.22
2023-04-12T16:16:46.833Z,11.19
2023-04-12T16:22:14.784Z,11.13
2023-04-12T16:27:39.784Z,11.08
2023-04-12T16:33:04.839Z,11.05
2023-04-12T16:38:32.809Z,11.01
2023-04-12T16:43:59.816Z,11.02
2023-04-12T16:49:24.853Z,10.96
2023-04-12T16:54:51.803Z,10.98
2023-04-12T17:00:35.809Z,10.97
2023-04-12T17:06:01.873Z,10.95
2023-04-12T17:11:29.868Z,10.92
2023-04-12T17:16:53.842Z,10.86
2023-04-12T17:22:18.864Z,10.83
2023-04-12T17:27:46.888Z,10.83
2023-04-12T17:33:18.849Z,10.77
2023-04-12T17:38:43.863Z,10.77
2023-04-12T17:44:13.058Z,10.70
2023-04-12T17:49:38.943Z,10.61
2023-04-12T17:55:03.170Z,10.57
2023-04-12T18:00:33.927Z,10.53
2023-04-12T18:05:59.954Z,10.44
2023-04-12T18:11:24.882Z,10.36
2023-04-12T18:16:53.907Z,10.27
2023-04-12T18:22:18.859Z,10.22
2023-04-12T18:27:44.058Z,10.16
2023-04-12T18:33:17.903Z,10.10
2023-04-12T18:38:42.854Z,10.09
2023-04-12T18:44:07.934Z,10.10
2023-04-12T18:49:35.899Z,10.08
2023-04-12T18:55:05.019Z,10.08
2023-04-12T19:00:30.981Z,10.01
2023-04-12T19:05:58.876Z,9.95
2023-04-12T19:11:23.867Z,9.91
2023-04-12T19:16:48.889Z,9.85
2023-04-12T19:22:16.986Z,9.88
2023-04-12T19:27:41.879Z,9.85
2023-04-12T19:33:15.053Z,9.81
2023-04-12T19:38:42.880Z,9.70
2023-04-12T19:44:06.882Z,9.64
2023-04-12T19:49:32.884Z,9.61
2023-04-12T19:55:02.920Z,9.63
2023-04-12T20:00:33.161Z,9.51
2023-04-12T20:05:57.906Z,9.46
2023-04-12T20:11:25.947Z,9.41
2023-04-12T20:16:51.933Z,9.40
2023-04-12T20:22:16.983Z,9.31
2023-04-12T20:27:44.923Z,9.35
2023-04-12T20:33:15.906Z,9.24
2023-04-12T20:38:41.033Z,9.23
2023-04-12T20:44:08.969Z,9.21
2023-04-12T20:49:33.918Z,9.20
2023-04-12T20:54:59.965Z,9.10
2023-04-12T21:00:35.913Z,9.07
2023-04-12T21:06:07.935Z,8.96
2023-04-12T21:11:33.939Z,8.96
2023-04-12T21:17:01.305Z,8.91
2023-04-12T21:22:25.955Z,8.80
2023-04-12T21:27:51.950Z,8.73
2023-04-12T21:33:19.912Z,8.64
2023-04-12T21:38:43.926Z,8.52
2023-04-12T21:44:08.962Z,8.12
2023-04-12T21:49:36.986Z,8.00
2023-04-12T21:55:02.968Z,7.66
2023-04-12T22:00:30.959Z,7.57
2023-04-12T22:06:06.006Z,7.34
2023-04-12T22:11:31.122Z,7.31
2023-04-12T22:16:56.055Z,7.21
2023-04-12T22:22:23.999Z,7.19
2023-04-12T22:27:52.959Z,7.11
2023-04-12T22:33:19.943Z,7.05
2023-04-12T22:38:48.977Z,6.93
2023-04-12T22:44:15.954Z,7.01
2023-04-12T22:49:44.491Z,6.99
2023-04-12T22:55:11.971Z,6.82
2023-04-12T23:00:37.006Z,6.81
2023-04-12T23:06:08.951Z,6.70
2023-04-12T23:11:36.950Z,6.63
2023-04-12T23:17:04.446Z,6.58
2023-04-12T23:22:56.046Z,6.53
2023-04-12T23:28:23.995Z,6.64
2023-04-12T23:33:50.001Z,6.60
2023-04-12T23:39:16.236Z,6.70
2023-04-12T23:44:44.244Z,6.57
2023-04-12T23:50:09.003Z,6.53
2023-04-12T23:55:34.993Z,6.41
